RYR8PF LBBG-EPMO
Flight info
| Callsign | RYR8PF |
|---|---|
| Flight time | N/A |
| Altitude | 38000 |
| Route | ARNOV T226 ETUBA DCT UTEKA DCT DONIV DCT PARAK DCT PITOK DCT KELEL DCT LOGDA |
| Aircraft | B738/M-SDE2E3FGHIRWXY/LB1 |
Departure
| Time | N/A |
|---|---|
| Airport | Burgas Airport (LBBG) |
Arrival
| Time | 2026-05-06 18:35 |
|---|---|
| Airport | Warsaw Modlin Airport (EPMO) |
| Time | Latitude | Longitude | Altitude | Speed | Heading |
|---|---|---|---|---|---|
| 2026-05-06 18:22 | 51.79447 | 21.56215 | 17785 ft | 388 kts | 18° |
| 2026-05-06 18:22 | 51.81925 | 21.57758 | 17313 ft | 386 kts | 18° |
| 2026-05-06 18:23 | 51.84433 | 21.59322 | 16860 ft | 384 kts | 18° |
| 2026-05-06 18:23 | 51.86912 | 21.60869 | 16427 ft | 381 kts | 18° |
| 2026-05-06 18:23 | 51.89433 | 21.62073 | 15933 ft | 374 kts | 1° |
| 2026-05-06 18:23 | 51.91960 | 21.61633 | 15445 ft | 362 kts | 338° |
| 2026-05-06 18:24 | 51.94201 | 21.59929 | 15049 ft | 351 kts | 322° |
| 2026-05-06 18:24 | 51.96195 | 21.57687 | 14627 ft | 347 kts | 320° |
| 2026-05-06 18:24 | 51.98124 | 21.55419 | 14178 ft | 346 kts | 319° |
| 2026-05-06 18:24 | 52.00061 | 21.53121 | 13750 ft | 345 kts | 319° |
| 2026-05-06 18:25 | 52.02004 | 21.50826 | 13327 ft | 342 kts | 320° |
| 2026-05-06 18:25 | 52.03929 | 21.48566 | 12897 ft | 339 kts | 320° |
| 2026-05-06 18:25 | 52.05819 | 21.46356 | 12487 ft | 337 kts | 320° |
| 2026-05-06 18:25 | 52.07703 | 21.44161 | 12250 ft | 328 kts | 320° |
| 2026-05-06 18:26 | 52.09549 | 21.42014 | 11902 ft | 327 kts | 320° |
| 2026-05-06 18:26 | 52.11404 | 21.39852 | 11543 ft | 329 kts | 320° |
| 2026-05-06 18:26 | 52.13273 | 21.37670 | 11175 ft | 331 kts | 320° |
| 2026-05-06 18:26 | 52.15148 | 21.35484 | 10814 ft | 331 kts | 320° |
| 2026-05-06 18:27 | 52.17017 | 21.33304 | 10440 ft | 329 kts | 320° |
| 2026-05-06 18:27 | 52.18874 | 21.31138 | 10079 ft | 327 kts | 320° |
| 2026-05-06 18:27 | 52.20717 | 21.28985 | 9726 ft | 325 kts | 320° |
| 2026-05-06 18:27 | 52.22530 | 21.26865 | 9337 ft | 323 kts | 320° |
| 2026-05-06 18:28 | 52.24348 | 21.24735 | 8947 ft | 321 kts | 320° |
| 2026-05-06 18:28 | 52.26160 | 21.22611 | 8557 ft | 319 kts | 320° |
| 2026-05-06 18:28 | 52.27959 | 21.20500 | 8176 ft | 317 kts | 320° |
| 2026-05-06 18:28 | 52.29749 | 21.18397 | 7805 ft | 316 kts | 320° |
| 2026-05-06 18:29 | 52.31530 | 21.16303 | 7430 ft | 314 kts | 320° |
| 2026-05-06 18:29 | 52.33304 | 21.14214 | 7063 ft | 313 kts | 320° |
| 2026-05-06 18:29 | 52.35068 | 21.12135 | 6693 ft | 312 kts | 320° |
| 2026-05-06 18:29 | 52.36824 | 21.10064 | 6340 ft | 311 kts | 320° |
| 2026-05-06 18:30 | 52.38574 | 21.07997 | 5968 ft | 308 kts | 320° |
| 2026-05-06 18:30 | 52.40285 | 21.05978 | 5565 ft | 297 kts | 320° |
| 2026-05-06 18:30 | 52.41934 | 21.04030 | 5185 ft | 288 kts | 320° |
| 2026-05-06 18:30 | 52.43515 | 21.02159 | 4817 ft | 280 kts | 320° |
| 2026-05-06 18:31 | 52.45071 | 21.00316 | 4414 ft | 274 kts | 320° |
| 2026-05-06 18:31 | 52.46576 | 20.98448 | 3993 ft | 266 kts | 312° |
| 2026-05-06 18:31 | 52.47520 | 20.95967 | 3601 ft | 252 kts | 284° |
| 2026-05-06 18:31 | 52.47745 | 20.93212 | 3357 ft | 238 kts | 265° |
| 2026-05-06 18:32 | 52.47554 | 20.90568 | 3127 ft | 227 kts | 260° |
| 2026-05-06 18:32 | 52.47312 | 20.88128 | 3034 ft | 206 kts | 259° |
| 2026-05-06 18:32 | 52.47092 | 20.85957 | 2974 ft | 185 kts | 259° |
| 2026-05-06 18:32 | 52.46885 | 20.83878 | 2691 ft | 183 kts | 259° |
| 2026-05-06 18:33 | 52.46687 | 20.81830 | 2420 ft | 181 kts | 260° |
| 2026-05-06 18:33 | 52.46495 | 20.79808 | 2145 ft | 178 kts | 261° |
| 2026-05-06 18:33 | 52.46310 | 20.77845 | 1879 ft | 169 kts | 261° |
| 2026-05-06 18:33 | 52.46138 | 20.76007 | 1619 ft | 158 kts | 261° |
| 2026-05-06 18:34 | 52.45977 | 20.74281 | 1421 ft | 145 kts | 261° |
| 2026-05-06 18:34 | 52.45827 | 20.72677 | 1154 ft | 140 kts | 260° |
| 2026-05-06 18:34 | 52.45675 | 20.71098 | 904 ft | 141 kts | 262° |
| 2026-05-06 18:34 | 52.45524 | 20.69522 | 670 ft | 142 kts | 261° |
| 2026-05-06 18:35 | 52.45377 | 20.67917 | 477 ft | 143 kts | 261° |
| 2026-05-06 18:35 | 52.45277 | 20.66844 | 350 ft | 145 kts | 261° |
| 2026-05-06 18:35 | 52.45172 | 20.65708 | 338 ft | 0 kts | 265° |
| 2026-05-06 18:35 | 52.45172 | 20.65707 | 338 ft | 0 kts | 271° |
| 2026-05-06 18:36 | 52.45174 | 20.65704 | 338 ft | 1 kts | 288° |
| 2026-05-06 18:36 | 52.45175 | 20.65698 | 339 ft | 1 kts | 285° |
| 2026-05-06 18:36 | 52.45174 | 20.65693 | 339 ft | 1 kts | 261° |
| 2026-05-06 18:36 | 52.45171 | 20.65689 | 338 ft | 0 kts | 225° |
| 2026-05-06 18:37 | 52.45166 | 20.65689 | 336 ft | 4 kts | 186° |
| 2026-05-06 18:37 | 52.45154 | 20.65717 | 338 ft | 1 kts | 104° |
| 2026-05-06 18:37 | 52.45171 | 20.65800 | 335 ft | 32 kts | 71° |
| 2026-05-06 18:37 | 52.45101 | 20.66023 | 336 ft | 25 kts | 159° |
| 2026-05-06 18:38 | 52.44924 | 20.66127 | 337 ft | 25 kts | 165° |
| 2026-05-06 18:38 | 52.44856 | 20.65969 | 337 ft | 20 kts | 261° |
| 2026-05-06 18:38 | 52.44833 | 20.65722 | 335 ft | 23 kts | 262° |
| 2026-05-06 18:38 | 52.44811 | 20.65468 | 337 ft | 22 kts | 261° |
| 2026-05-06 18:39 | 52.44788 | 20.65238 | 336 ft | 13 kts | 252° |
| 2026-05-06 18:39 | 52.44740 | 20.65180 | 335 ft | 7 kts | 205° |
| 2026-05-06 18:39 | 52.44738 | 20.65179 | 335 ft | 0 kts | 205° |